Cachinal, Argentina
Current Conditions -  °F | °C
As of 7:18 PM on Monday 24 Nov 2014 (Local Time) from SASA Reporting Station
Thunderstorm Thunderstorm  
Wind Chill: 30°   Ceiling: Unl
Heat Index: 30°   Visibility: 6mi
Dew Point: 10°   Wind: 15mph
Humidity: 29%   Direction: 140°SE
Pressure: 29.77"   Gusts: NA
Location:  24.25°S, 66.07°W
Report Text: SASA 242218Z 14013KT 9999 TS SCT020 FEW030CB 30/10 Q1008
Loading
Personal Weather Stations






























Interactive Weather Map New forecast layout! Learn more

10-Day Weather Forecast

Advertisements
Track Severe Weather on mobile